Time;durP1;ratioP1;P1;durP2;ratioP2;P2;SDS_P1;SDS_P2;PMS_P1;PMS_P2;Temp;Humidity;BMP_temperature;BMP_pressure;BME280_temperature;BME280_humidity;BME280_pressure;Samples;Min_cycle;Max_cycle;Signal;HPM_P1;HPM_P2
2022/03/23 00:01:29;;;;;;;39.80;20.30;;;;;;;7.13;56.58;102787.72;5025168;28;20393;-78
2022/03/23 00:03:55;;;;;;;33.53;19.27;;;;;;;7.12;56.26;102789.50;5026291;28;20025;-79
2022/03/23 00:06:20;;;;;;;32.88;19.58;;;;;;;7.09;56.96;102791.28;5028721;28;20423;-78
2022/03/23 00:08:46;;;;;;;36.92;19.90;;;;;;;7.06;56.37;102791.28;5028832;28;20120;-79
2022/03/23 00:11:11;;;;;;;33.78;19.65;;;;;;;7.05;56.88;102790.41;5029230;28;20037;-79
2022/03/23 00:13:37;;;;;;;38.47;20.13;;;;;;;7.03;56.81;102786.91;5025552;28;20395;-79
2022/03/23 00:16:04;;;;;;;31.70;19.27;;;;;;;6.97;57.27;102786.91;5024907;28;20033;-79
2022/03/23 00:18:29;;;;;;;36.65;20.45;;;;;;;6.85;57.31;102771.97;5027413;28;20033;-78
2022/03/23 00:20:54;;;;;;;33.92;20.20;;;;;;;6.92;57.77;102794.00;5027125;28;20414;-79
2022/03/23 00:23:20;;;;;;;37.03;19.33;;;;;;;6.80;57.39;102772.88;5026379;28;20034;-79
2022/03/23 00:25:45;;;;;;;35.25;21.27;;;;;;;6.85;57.08;102782.56;5015714;28;20376;-78
2022/03/23 00:28:10;;;;;;;32.92;20.42;;;;;;;6.79;57.45;102789.66;5026563;28;20048;-78
2022/03/23 00:30:35;;;;;;;34.50;20.02;;;;;;;6.71;57.88;102789.69;5028010;28;20053;-79
2022/03/23 00:33:05;;;;;;;36.72;20.42;;;;;;;6.65;57.94;102787.06;5022182;28;20037;-79
2022/03/23 00:35:30;;;;;;;33.30;20.05;;;;;;;6.59;57.85;102785.31;5021313;28;20384;-78
2022/03/23 00:37:58;;;;;;;33.15;20.10;;;;;;;6.56;58.64;102792.38;5026101;28;20032;-79
2022/03/23 00:40:24;;;;;;;30.65;19.98;;;;;;;6.47;58.42;102788.88;5023927;28;20052;-79
2022/03/23 00:42:50;;;;;;;32.47;19.58;;;;;;;6.50;59.07;102790.63;5025909;28;20095;-78
2022/03/23 00:45:17;;;;;;;32.85;19.67;;;;;;;6.46;59.72;102792.41;5029530;28;20030;-79
2022/03/23 00:47:43;;;;;;;34.17;19.98;;;;;;;6.43;59.40;102796.81;5029080;28;20459;-79
2022/03/23 00:50:09;;;;;;;32.70;19.38;;;;;;;6.39;59.04;102787.13;5026848;28;20030;-78
2022/03/23 00:52:36;;;;;;;40.92;20.77;;;;;;;6.37;59.35;102784.50;5026828;28;20025;-78
2022/03/23 00:55:01;;;;;;;32.70;19.55;;;;;;;6.34;59.76;102788.91;5023200;28;20053;-78
2022/03/23 00:57:27;;;;;;;35.38;19.83;;;;;;;6.30;59.72;102793.31;5026246;28;20428;-78
2022/03/23 00:59:52;;;;;;;32.58;19.73;;;;;;;6.27;59.32;102787.16;5027822;28;20418;-79
2022/03/23 01:02:17;;;;;;;34.80;19.67;;;;;;;6.23;59.38;102787.19;5024086;28;20037;-79
2022/03/23 01:04:42;;;;;;;36.90;20.00;;;;;;;6.18;59.46;102783.63;5024277;28;20033;-79
2022/03/23 01:07:08;;;;;;;30.80;19.42;;;;;;;6.12;59.78;102783.66;5027661;28;20390;-79
2022/03/23 01:09:33;;;;;;;32.35;19.83;;;;;;;6.04;60.11;102779.28;5026326;28;20025;-79
2022/03/23 01:11:58;;;;;;;36.08;20.42;;;;;;;5.99;60.21;102780.16;5023819;28;20061;-79
2022/03/23 01:14:26;;;;;;;35.00;20.20;;;;;;;5.93;60.41;102774.84;5027029;28;20232;-79
2022/03/23 01:16:52;;;;;;;36.33;20.52;;;;;;;5.91;60.61;102781.88;5022982;28;20033;-79
2022/03/23 01:19:22;;;;;;;38.10;21.25;;;;;;;5.79;61.14;102767.81;5012668;28;20021;-79
2022/03/23 01:21:48;;;;;;;38.90;21.80;;;;;;;5.80;61.43;102778.34;5015478;28;20478;-79
2022/03/23 01:24:13;;;;;;;37.65;21.80;;;;;;;5.77;61.08;102777.47;5027333;28;20041;-79
2022/03/23 01:26:38;;;;;;;37.53;22.08;;;;;;;5.78;61.14;102771.34;5023585;28;20041;-79
2022/03/23 01:29:04;;;;;;;38.30;21.55;;;;;;;5.72;61.35;102769.56;5027670;28;20430;-79
2022/03/23 01:31:30;;;;;;;36.65;20.98;;;;;;;5.70;61.28;102769.56;5025150;28;20164;-79
2022/03/23 01:33:59;;;;;;;35.35;20.83;;;;;;;5.66;61.37;102766.91;5022669;28;20470;-79
2022/03/23 01:36:26;;;;;;;34.47;20.90;;;;;;;5.64;61.39;102773.94;5026160;28;20036;-79
2022/03/23 01:38:51;;;;;;;32.30;19.88;;;;;;;5.58;61.52;102763.41;5023752;28;20537;-79
2022/03/23 01:41:17;;;;;;;35.28;20.80;;;;;;;5.59;61.54;102771.31;5023858;28;20029;-79
2022/03/23 01:43:42;;;;;;;33.55;20.60;;;;;;;5.54;61.76;102759.88;5021880;28;20021;-79
2022/03/23 01:46:07;;;;;;;34.70;20.83;;;;;;;5.50;61.82;102761.63;5026186;28;20243;-79
2022/03/23 01:48:32;;;;;;;37.30;20.60;;;;;;;5.50;62.29;102764.25;5025303;28;20428;-79
2022/03/23 01:50:59;;;;;;;35.00;19.80;;;;;;;5.47;61.93;102761.59;5026602;28;20041;-79
2022/03/23 01:53:24;;;;;;;32.88;20.35;;;;;;;5.43;62.40;102765.16;5019515;28;20022;-79
2022/03/23 01:55:49;;;;;;;33.05;21.05;;;;;;;5.42;62.61;102759.84;5021552;28;20049;-79
2022/03/23 01:58:15;;;;;;;34.53;20.45;;;;;;;5.37;62.32;102759.84;5024229;28;20091;-79
2022/03/23 02:00:40;;;;;;;36.40;20.23;;;;;;;5.32;62.43;102758.97;5026016;28;20463;-79
2022/03/23 02:03:05;;;;;;;33.08;20.27;;;;;;;5.25;62.83;102751.91;5025788;28;20082;-79
2022/03/23 02:05:30;;;;;;;37.88;20.30;;;;;;;5.24;62.73;102750.16;5025286;28;20021;-79
2022/03/23 02:07:56;;;;;;;37.13;19.85;;;;;;;5.20;62.58;102751.91;5024326;28;20379;-79
2022/03/23 02:10:22;;;;;;;37.55;20.98;;;;;;;5.14;62.91;102748.34;5025935;28;20045;-78
2022/03/23 02:12:47;;;;;;;35.78;19.42;;;;;;;5.11;63.00;102749.25;5019398;28;20030;-79
2022/03/23 02:15:16;;;;;;;34.50;22.33;;;;;;;5.08;63.41;102751.88;5019273;28;20037;-78
2022/03/23 02:17:42;;;;;;;37.88;20.90;;;;;;;4.99;63.35;102747.47;5026412;28;20529;-78
2022/03/23 02:20:09;;;;;;;34.40;21.55;;;;;;;4.97;63.74;102753.59;5024150;28;20076;-78
2022/03/23 02:22:35;;;;;;;34.72;21.23;;;;;;;4.90;63.99;102754.47;5026127;28;20083;-79
2022/03/23 02:25:00;;;;;;;32.80;20.50;;;;;;;4.85;64.14;102756.19;5025861;28;20155;-78
2022/03/23 02:27:26;;;;;;;39.22;21.88;;;;;;;4.75;63.90;102752.66;5026694;28;20104;-79
2022/03/23 02:29:53;;;;;;;36.17;21.73;;;;;;;4.71;63.99;102759.66;5024744;28;20037;-78
2022/03/23 02:32:19;;;;;;;39.58;23.17;;;;;;;4.69;64.26;102761.44;5020229;28;20068;-79
2022/03/23 02:34:44;;;;;;;32.08;21.75;;;;;;;4.68;64.05;102761.41;5023686;28;20479;-78
2022/03/23 02:37:10;;;;;;;37.95;21.45;;;;;;;4.65;63.92;102757.03;5025292;28;20033;-79
2022/03/23 02:39:37;;;;;;;34.95;21.50;;;;;;;4.63;64.31;102756.13;5025598;28;20025;-78
2022/03/23 02:42:04;;;;;;;38.42;20.50;;;;;;;4.60;64.02;102749.94;5025106;28;20099;-79
2022/03/23 02:44:29;;;;;;;35.88;21.60;;;;;;;4.58;64.83;102759.63;5026223;28;20101;-79
2022/03/23 02:46:56;;;;;;;41.08;22.80;;;;;;;4.57;64.75;102755.22;5026203;28;20117;-79
2022/03/23 02:49:21;;;;;;;39.28;21.58;;;;;;;4.55;65.35;102744.66;5024988;28;20075;-79
2022/03/23 02:51:47;;;;;;;38.88;21.67;;;;;;;4.56;65.21;102743.81;5025789;28;20033;-79
2022/03/23 03:02:47;;;;;;;37.83;21.15;;;;;;;4.46;64.86;102750.75;5028488;28;20055;-78
2022/03/23 03:05:13;;;;;;;35.03;20.85;;;;;;;4.39;64.76;102749.00;5033025;28;20490;-79
2022/03/23 03:10:24;;;;;;;34.63;20.67;;;;;;;4.32;65.11;102756.84;5028069;28;20140;-78
2022/03/23 03:12:50;;;;;;;36.80;22.08;;;;;;;4.27;65.26;102750.69;5020098;28;20503;-78
2022/03/23 03:15:17;;;;;;;36.22;22.38;;;;;;;4.24;65.49;102748.91;5032172;28;20170;-79
2022/03/23 03:17:42;;;;;;;39.13;21.20;;;;;;;4.20;65.73;102749.75;5032798;28;20108;-79
2022/03/23 03:20:09;;;;;;;37.10;22.08;;;;;;;4.17;65.97;102758.50;5032082;28;20185;-79
2022/03/23 03:22:36;;;;;;;36.13;22.67;;;;;;;4.10;66.47;102748.81;5030687;28;20026;-79
2022/03/23 03:25:02;;;;;;;38.33;21.60;;;;;;;4.08;66.41;102753.19;5030580;28;20033;-79
2022/03/23 03:27:30;;;;;;;32.50;19.85;;;;;;;4.09;66.40;102754.06;5032978;28;20108;-79
2022/03/23 03:29:55;;;;;;;35.33;20.75;;;;;;;4.07;66.52;102755.81;5031856;28;20049;-79
2022/03/23 03:32:21;;;;;;;35.53;20.48;;;;;;;4.01;66.37;102764.53;5025750;28;20068;-79
2022/03/23 03:34:46;;;;;;;33.00;20.67;;;;;;;3.99;66.38;102767.19;5032457;28;20055;-79
2022/03/23 03:37:11;;;;;;;39.65;22.40;;;;;;;3.95;66.64;102762.75;5031518;28;20084;-79
2022/03/23 03:39:36;;;;;;;37.47;21.70;;;;;;;3.94;66.87;102755.72;5031393;28;20388;-79
2022/03/23 03:42:02;;;;;;;37.13;22.02;;;;;;;3.91;67.13;102760.09;5029721;28;20037;-79
2022/03/23 03:44:27;;;;;;;39.42;22.58;;;;;;;3.85;67.05;102762.69;5027894;28;20042;-79
2022/03/23 03:46:52;;;;;;;39.25;21.83;;;;;;;3.83;67.22;102757.41;5032965;28;20027;-79
2022/03/23 03:49:18;;;;;;;39.10;22.48;;;;;;;3.79;67.75;102757.38;5031148;28;20478;-79
2022/03/23 03:51:43;;;;;;;33.50;22.23;;;;;;;3.69;68.49;102759.94;5030120;28;20060;-79
2022/03/23 03:54:09;;;;;;;37.67;22.42;;;;;;;3.63;68.64;102759.00;5029239;28;20035;-79
2022/03/23 03:56:34;;;;;;;41.03;23.90;;;;;;;3.62;68.47;102765.13;5029197;28;20038;-79
2022/03/23 03:58:59;;;;;;;45.97;24.63;;;;;;;3.58;68.56;102763.34;5031587;28;20494;-79
2022/03/23 04:01:25;;;;;;;37.83;23.15;;;;;;;3.58;69.18;102766.84;5030489;28;20033;-79
2022/03/23 04:03:50;;;;;;;40.28;23.25;;;;;;;3.59;68.70;102773.00;5028320;28;20025;-79
2022/03/23 04:06:15;;;;;;;43.53;23.73;;;;;;;3.56;68.70;102765.97;5027430;28;20461;-79
2022/03/23 04:08:41;;;;;;;39.90;22.63;;;;;;;3.52;68.75;102766.81;5029131;28;20030;-79
2022/03/23 04:11:06;;;;;;;40.65;23.85;;;;;;;3.48;68.50;102767.66;5027504;28;20473;-79
2022/03/23 04:13:32;;;;;;;41.78;23.65;;;;;;;3.46;68.55;102766.72;5023185;28;20577;-79
2022/03/23 04:15:57;;;;;;;42.20;23.55;;;;;;;3.40;69.22;102771.97;5029286;28;20091;-79
2022/03/23 04:18:22;;;;;;;41.22;23.98;;;;;;;3.35;69.64;102771.91;5028226;28;20120;-79
2022/03/23 04:20:48;;;;;;;39.05;23.67;;;;;;;3.32;70.00;102785.03;5023366;28;20033;-79
2022/03/23 04:23:13;;;;;;;40.38;22.85;;;;;;;3.31;70.14;102783.28;5021774;28;20022;-78
2022/03/23 04:25:38;;;;;;;42.40;24.20;;;;;;;3.29;69.70;102779.72;5015632;28;20026;-79
2022/03/23 04:28:04;;;;;;;40.47;23.63;;;;;;;3.26;70.07;102774.47;5025549;28;20486;-79
2022/03/23 04:30:31;;;;;;;42.35;24.75;;;;;;;3.24;70.13;102777.06;5019587;28;20025;-79
2022/03/23 04:32:57;;;;;;;44.20;23.50;;;;;;;3.23;70.28;102777.06;5026408;28;20029;-79
2022/03/23 04:35:22;;;;;;;42.45;23.48;;;;;;;3.19;70.32;102775.25;5024797;28;20505;-79
2022/03/23 04:37:48;;;;;;;41.78;24.20;;;;;;;3.19;70.41;102783.16;5029305;28;20060;-79
2022/03/23 04:40:14;;;;;;;45.60;23.20;;;;;;;3.15;70.59;102787.50;5022827;28;20033;-79
2022/03/23 04:42:40;;;;;;;38.47;24.35;;;;;;;3.03;70.35;102781.22;5029620;28;20116;-79
2022/03/23 04:45:06;;;;;;;42.88;24.85;;;;;;;2.98;70.44;102786.44;5027576;28;20025;-78
2022/03/23 04:47:33;;;;;;;46.63;24.80;;;;;;;2.86;71.19;102781.03;5026924;28;20368;-79
2022/03/23 04:49:58;;;;;;;42.03;25.20;;;;;;;2.80;71.80;102788.81;5025924;28;20045;-79
2022/03/23 04:52:24;;;;;;;44.38;26.33;;;;;;;2.80;72.60;102794.06;5027159;28;20107;-79
2022/03/23 04:54:49;;;;;;;41.58;24.55;;;;;;;2.75;72.14;102797.53;5026931;28;20400;-79
2022/03/23 04:57:14;;;;;;;45.63;26.00;;;;;;;2.74;71.97;102789.63;5023846;28;20037;-79
2022/03/23 04:59:39;;;;;;;42.03;24.70;;;;;;;2.73;72.08;102801.91;5027949;28;20479;-79
2022/03/23 05:02:05;;;;;;;47.05;25.55;;;;;;;2.72;72.03;102797.50;5025644;28;20060;-79
2022/03/23 05:04:31;;;;;;;46.30;25.42;;;;;;;2.72;72.06;102802.78;5027321;28;20025;-79
2022/03/23 05:06:56;;;;;;;45.35;25.55;;;;;;;2.69;72.08;102802.72;5026293;28;20029;-79
2022/03/23 05:09:21;;;;;;;41.13;24.17;;;;;;;2.70;72.11;102800.97;5028180;28;20065;-79
2022/03/23 05:11:47;;;;;;;43.95;24.08;;;;;;;2.71;72.15;102806.25;5025680;28;20030;-79
2022/03/23 05:14:12;;;;;;;45.53;24.45;;;;;;;2.66;72.01;102802.69;5020941;28;20065;-79
2022/03/23 05:16:37;;;;;;;46.88;25.70;;;;;;;2.69;71.83;102809.72;5026494;28;20024;-79
2022/03/23 05:19:03;;;;;;;44.10;24.65;;;;;;;2.68;71.61;102808.84;5025255;28;20037;-79
2022/03/23 05:21:28;;;;;;;48.30;25.25;;;;;;;2.67;71.59;102804.44;5024509;28;20505;-79
2022/03/23 05:23:53;;;;;;;43.67;24.23;;;;;;;2.68;71.60;102813.22;5026059;28;20099;-79
2022/03/23 05:26:19;;;;;;;40.95;24.27;;;;;;;2.68;71.33;102805.34;5026404;28;20021;-79
2022/03/23 05:28:44;;;;;;;47.05;26.13;;;;;;;2.67;71.06;102806.19;5022326;28;20489;-79
2022/03/23 05:31:09;;;;;;;47.30;24.95;;;;;;;2.65;71.43;102803.53;5018998;28;20552;-79
2022/03/23 05:33:35;;;;;;;43.80;24.75;;;;;;;2.68;71.40;102802.72;5028273;28;20045;-79
2022/03/23 05:36:00;;;;;;;43.25;25.40;;;;;;;2.69;70.77;102813.25;5023258;28;20356;-80
2022/03/23 05:38:26;;;;;;;46.42;25.88;;;;;;;2.69;70.85;102812.38;5026497;28;20075;-79
2022/03/23 05:40:51;;;;;;;46.28;25.77;;;;;;;2.69;71.37;102812.38;5022584;28;20056;-80
2022/03/23 05:43:18;;;;;;;45.03;26.17;;;;;;;2.70;71.13;102819.38;5027498;28;20038;-80
2022/03/23 05:45:43;;;;;;;45.88;25.17;;;;;;;2.68;70.85;102816.75;5027708;28;20036;-80
2022/03/23 05:48:08;;;;;;;44.67;26.13;;;;;;;2.66;70.61;102818.44;5023738;28;20021;-80
2022/03/23 05:50:34;;;;;;;43.33;26.25;;;;;;;2.68;71.20;102821.13;5017529;28;20079;-80
2022/03/23 05:52:59;;;;;;;43.80;25.77;;;;;;;2.68;71.35;102819.38;5027291;28;20414;-79
2022/03/23 05:55:24;;;;;;;48.13;25.85;;;;;;;2.71;71.24;102818.50;5020920;28;20064;-79
2022/03/23 05:57:49;;;;;;;47.63;25.98;;;;;;;2.70;70.81;102820.25;5027602;28;20372;-79
2022/03/23 06:00:15;;;;;;;53.00;25.52;;;;;;;2.73;70.61;102827.31;5020014;28;20076;-80
2022/03/23 06:02:41;;;;;;;45.85;25.60;;;;;;;2.75;70.89;102833.47;5023626;28;20083;-79
2022/03/23 06:05:10;;;;;;;43.08;25.90;;;;;;;2.77;70.72;102823.00;5017920;28;20172;-79
2022/03/23 06:07:36;;;;;;;48.10;25.58;;;;;;;2.77;70.86;102821.25;5025975;28;20025;-80
2022/03/23 06:10:02;;;;;;;44.53;25.58;;;;;;;2.85;70.70;102837.13;5024973;28;20041;-80
2022/03/23 06:12:28;;;;;;;42.42;24.42;;;;;;;2.87;70.30;102825.72;5019477;28;20045;-79
2022/03/23 06:14:53;;;;;;;43.35;25.23;;;;;;;2.91;70.55;102832.81;5027018;28;20766;-80
2022/03/23 06:17:18;;;;;;;46.05;26.08;;;;;;;2.93;70.20;102833.72;5026880;28;20025;-80
2022/03/23 06:19:44;;;;;;;44.10;24.65;;;;;;;2.96;70.11;102839.00;5024932;28;20086;-80
2022/03/23 06:22:09;;;;;;;48.33;26.63;;;;;;;2.95;69.83;102818.81;5014582;28;20514;-79
2022/03/23 06:24:34;;;;;;;46.30;25.55;;;;;;;3.03;70.10;102834.72;5027556;28;20068;-80
2022/03/23 06:27:00;;;;;;;47.45;25.50;;;;;;;3.05;70.09;102829.44;5027226;28;20485;-80
2022/03/23 06:29:25;;;;;;;50.90;26.52;;;;;;;3.08;69.97;102834.75;5020089;28;20029;-80
2022/03/23 06:31:51;;;;;;;42.10;24.35;;;;;;;3.15;70.05;102833.97;5025849;28;20072;-80
2022/03/23 06:34:16;;;;;;;44.20;27.73;;;;;;;3.24;70.04;102834.97;5019928;28;20053;-79
2022/03/23 06:36:41;;;;;;;41.85;25.77;;;;;;;3.42;69.57;102841.28;5018373;28;20025;-80
2022/03/23 06:39:07;;;;;;;45.08;25.70;;;;;;;3.67;69.10;102832.75;5021477;28;20041;-79
2022/03/23 06:41:32;;;;;;;41.42;24.67;;;;;;;3.91;68.51;102840.00;5026306;28;20079;-80
2022/03/23 06:43:58;;;;;;;49.78;26.23;;;;;;;4.22;67.49;102825.34;5026054;28;20043;-80
2022/03/23 06:46:23;;;;;;;39.80;25.42;;;;;;;4.55;66.45;102844.84;5024081;28;20104;-80
2022/03/23 06:48:49;;;;;;;42.33;25.13;;;;;;;4.82;65.78;102841.50;5025882;28;20487;-80
2022/03/23 06:51:15;;;;;;;48.60;26.60;;;;;;;5.10;64.76;102854.81;5024001;28;20195;-80
2022/03/23 06:53:41;;;;;;;43.67;26.00;;;;;;;5.43;65.18;102856.69;5025632;28;20037;-80
2022/03/23 06:56:07;;;;;;;44.10;27.58;;;;;;;5.68;63.70;102857.63;5026003;28;20128;-80
2022/03/23 06:58:33;;;;;;;42.40;26.98;;;;;;;5.90;62.35;102842.69;5023823;28;20033;-80
2022/03/23 07:00:58;;;;;;;47.10;27.48;;;;;;;6.20;61.55;102852.41;5017256;28;20049;-79
2022/03/23 07:03:24;;;;;;;42.80;26.15;;;;;;;6.46;60.77;102853.25;5023564;28;20030;-80
2022/03/23 07:05:49;;;;;;;41.17;26.40;;;;;;;6.74;60.08;102859.38;5024764;28;20028;-80
2022/03/23 07:10:58;;;;;;;37.50;25.33;;;;;;;7.36;57.85;102859.13;5023560;28;20072;-80
2022/03/23 07:13:24;;;;;;;39.22;25.70;;;;;;;7.64;56.60;102844.81;5025966;28;20029;-80
2022/03/23 07:15:49;;;;;;;43.55;25.30;;;;;;;7.85;56.00;102854.38;5024205;28;20356;-80
2022/03/23 07:18:14;;;;;;;38.10;24.52;;;;;;;8.06;55.29;102855.97;5025991;28;20094;-80
2022/03/23 07:20:39;;;;;;;42.42;25.42;;;;;;;8.34;55.42;102853.97;5024760;28;20030;-79
2022/03/23 07:23:05;;;;;;;39.75;24.85;;;;;;;8.59;54.30;102853.75;5026473;28;20029;-80
2022/03/23 07:25:30;;;;;;;43.90;26.27;;;;;;;8.86;53.07;102864.09;5024598;28;20033;-79
2022/03/23 07:27:55;;;;;;;43.25;25.67;;;;;;;9.01;52.60;102862.13;5019193;28;20053;-81
2022/03/23 07:30:21;;;;;;;37.45;25.83;;;;;;;9.18;51.48;102857.47;5021949;28;20486;-80
2022/03/23 07:32:46;;;;;;;44.03;26.35;;;;;;;9.27;51.27;102854.69;5023748;28;20082;-80
2022/03/23 07:35:11;;;;;;;40.33;26.10;;;;;;;9.39;51.39;102870.47;5023995;28;20087;-80
2022/03/23 07:37:37;;;;;;;256.23;43.42;;;;;;;9.47;51.31;102862.41;5018638;28;20053;-80
2022/03/23 07:40:03;;;;;;;81.85;28.42;;;;;;;9.52;50.62;102859.69;5024083;28;20025;-78
2022/03/23 07:42:29;;;;;;;58.03;26.40;;;;;;;9.90;50.00;102857.31;5028487;28;20061;-82
2022/03/23 07:44:55;;;;;;;67.57;28.55;;;;;;;10.27;49.42;102866.50;5029121;28;20064;-79
2022/03/23 07:47:20;;;;;;;62.92;30.17;;;;;;;10.59;48.52;102857.97;5027956;28;20040;-80
2022/03/23 07:49:45;;;;;;;46.92;27.88;;;;;;;11.06;47.52;102864.13;5024459;28;20048;-80
2022/03/23 07:52:11;;;;;;;44.20;26.55;;;;;;;11.41;46.50;102860.69;5026467;28;20553;-87
2022/03/23 07:54:36;;;;;;;39.25;26.67;;;;;;;11.82;45.58;102867.75;5027999;28;20079;-81
2022/03/23 07:57:02;;;;;;;42.10;26.38;;;;;;;12.19;45.55;102864.19;5023992;28;20050;-81
2022/03/23 07:59:28;;;;;;;39.33;26.38;;;;;;;12.60;43.80;102870.25;5028182;28;20021;-80
2022/03/23 08:01:53;;;;;;;38.97;25.67;;;;;;;12.92;42.76;102869.38;5028215;28;20033;-79
2022/03/23 08:04:18;;;;;;;40.05;25.98;;;;;;;13.18;41.35;102879.31;5025749;28;20030;-79
2022/03/23 08:06:44;;;;;;;39.80;25.67;;;;;;;13.51;41.79;102879.25;5025908;28;20084;-80
2022/03/23 08:09:09;;;;;;;42.15;29.15;;;;;;;13.84;41.32;102877.31;5014275;28;20039;-80
2022/03/23 08:11:35;;;;;;;47.05;28.60;;;;;;;14.20;40.56;102884.13;5023146;28;20530;-80
2022/03/23 08:14:00;;;;;;;40.45;26.40;;;;;;;14.54;39.28;102880.31;5025559;28;20101;-80
2022/03/23 08:16:26;;;;;;;38.90;26.80;;;;;;;14.89;38.76;102889.78;5025499;28;20059;-80
2022/03/23 08:18:54;;;;;;;37.95;26.60;;;;;;;15.16;37.18;102874.47;5020401;28;20052;-80
2022/03/23 08:21:21;;;;;;;39.33;25.23;;;;;;;15.51;37.10;102880.31;5022696;28;20036;-80
2022/03/23 08:23:49;;;;;;;39.00;26.63;;;;;;;16.02;34.94;102875.59;5021765;28;20030;-80
2022/03/23 08:26:15;;;;;;;33.10;25.05;;;;;;;16.39;35.27;102877.63;5018982;28;20064;-80
2022/03/23 08:28:42;;;;;;;35.90;25.58;;;;;;;16.70;34.21;102874.44;5019456;28;20523;-80
2022/03/23 08:31:08;;;;;;;42.38;26.33;;;;;;;17.07;33.41;102878.19;5024257;28;20149;-81
2022/03/23 08:33:34;;;;;;;35.28;25.00;;;;;;;17.50;33.57;102877.06;5023617;28;20542;-82
2022/03/23 08:36:01;;;;;;;45.72;30.73;;;;;;;17.82;32.55;102871.97;5024847;28;20040;-81
2022/03/23 08:38:27;;;;;;;39.78;26.50;;;;;;;18.24;32.23;102874.34;5016264;28;20032;-82
2022/03/23 08:40:52;;;;;;;37.33;24.85;;;;;;;18.49;30.52;102873.94;5022712;28;20037;-82
2022/03/23 08:43:17;;;;;;;35.88;25.25;;;;;;;18.84;30.53;102871.22;5017377;28;20033;-82
2022/03/23 08:45:43;;;;;;;32.83;24.60;;;;;;;19.25;30.31;102873.50;5017107;28;20171;-83
2022/03/23 08:48:09;;;;;;;36.63;25.85;;;;;;;19.69;29.82;102868.34;5021252;28;20041;-82
2022/03/23 08:50:35;;;;;;;32.90;24.90;;;;;;;20.05;29.78;102867.16;5023568;28;20038;-82
2022/03/23 08:53:02;;;;;;;39.45;25.17;;;;;;;20.42;27.41;102871.22;5022679;28;20041;-81
2022/03/23 08:55:28;;;;;;;31.83;24.70;;;;;;;20.83;26.98;102879.56;5020298;28;20053;-81
2022/03/23 08:57:54;;;;;;;37.30;25.33;;;;;;;21.27;26.84;102875.88;5020312;28;20029;-81
2022/03/23 09:00:20;;;;;;;35.15;26.00;;;;;;;21.54;26.22;102875.97;5021670;28;20384;-81
2022/03/23 09:02:45;;;;;;;33.15;24.23;;;;;;;21.96;25.95;102868.69;5017892;28;20060;-82
2022/03/23 09:05:12;;;;;;;37.25;26.75;;;;;;;22.37;24.43;102881.31;5024997;28;20033;-82
2022/03/23 09:07:38;;;;;;;35.95;26.85;;;;;;;22.64;25.42;102875.78;5021349;28;20026;-81
2022/03/23 09:10:05;;;;;;;31.17;23.52;;;;;;;22.98;24.44;102876.16;5022009;28;20070;-82
2022/03/23 09:12:30;;;;;;;31.85;24.00;;;;;;;23.51;23.74;102877.69;5023684;28;20030;-82
2022/03/23 09:14:56;;;;;;;34.95;25.55;;;;;;;23.61;22.23;102878.75;5022817;28;20060;-82
2022/03/23 09:17:22;;;;;;;29.67;23.70;;;;;;;23.73;22.00;102878.84;5020498;28;20029;-82
2022/03/23 09:19:47;;;;;;;32.28;23.33;;;;;;;24.35;21.43;102878.66;5022521;28;20528;-81
2022/03/23 09:22:12;;;;;;;30.35;23.20;;;;;;;24.80;21.13;102871.47;5022065;28;20120;-83
2022/03/23 09:24:39;;;;;;;33.25;24.20;;;;;;;25.09;20.96;102876.50;5012596;28;20056;-81
2022/03/23 09:27:04;;;;;;;34.05;26.05;;;;;;;25.28;20.87;102871.25;5025540;28;20041;-82
2022/03/23 09:29:29;;;;;;;30.67;23.73;;;;;;;25.71;20.38;102877.75;5022048;28;20052;-82
2022/03/23 09:31:55;;;;;;;32.17;24.77;;;;;;;26.04;20.18;102869.50;5020584;28;20124;-82
2022/03/23 09:34:21;;;;;;;30.48;25.00;;;;;;;26.22;19.74;102874.41;5021045;28;20030;-83
2022/03/23 09:39:29;;;;;;;31.08;24.02;;;;;;;26.88;18.49;102885.06;5020938;28;20060;-82
2022/03/23 09:41:57;;;;;;;30.02;24.02;;;;;;;26.83;17.95;102872.66;5021517;28;20033;-85
2022/03/23 09:44:25;;;;;;;30.00;23.42;;;;;;;26.99;17.88;102872.19;5024340;28;20183;-83
2022/03/23 09:46:51;;;;;;;31.17;24.92;;;;;;;27.25;17.82;102872.59;5023826;28;20056;-83
2022/03/23 09:49:16;;;;;;;31.63;23.23;;;;;;;27.54;17.22;102877.28;5016229;28;20470;-83
2022/03/23 09:51:42;;;;;;;31.83;23.40;;;;;;;27.55;17.57;102876.31;5023432;28;20040;-84
2022/03/23 09:54:07;;;;;;;29.40;23.52;;;;;;;27.69;16.87;102873.16;5025767;28;20496;-84
2022/03/23 09:56:33;;;;;;;32.67;24.42;;;;;;;28.13;17.29;102878.25;5026575;28;20041;-90
2022/03/23 09:58:58;;;;;;;29.33;24.15;;;;;;;28.67;17.50;102869.41;5026982;28;20025;-92
2022/03/23 10:01:29;;;;;;;29.50;23.50;;;;;;;28.90;16.83;102875.41;5025946;28;20025;-87
2022/03/23 10:04:07;;;;;;;29.35;24.27;;;;;;;29.26;16.61;102875.56;5027987;28;20021;-85
2022/03/23 10:06:41;;;;;;;30.52;24.17;;;;;;;29.58;16.31;102880.63;5026646;28;20067;-86
2022/03/23 10:09:20;;;;;;;31.67;25.58;;;;;;;29.96;16.48;102876.75;5024381;28;20025;-87
2022/03/23 10:12:13;;;;;;;30.10;24.52;;;;;;;30.50;16.81;102882.22;5026626;28;20033;-87
2022/03/23 10:14:46;;;;;;;29.45;24.25;;;;;;;30.80;16.06;102885.53;5026533;28;20087;-88
2022/03/23 10:17:54;;;;;;;36.07;26.90;;;;;;;31.20;17.31;102894.03;5022819;28;20029;-87
2022/03/23 10:20:20;;;;;;;28.67;24.42;;;;;;;30.95;15.30;102883.94;5025208;28;20276;-87
2022/03/23 10:22:52;;;;;;;34.92;27.73;;;;;;;31.18;15.77;102890.56;5026224;28;20025;-87
2022/03/23 10:25:26;;;;;;;31.80;26.33;;;;;;;31.56;15.93;102892.97;5028212;28;20064;-87
2022/03/23 10:27:52;;;;;;;31.85;25.42;;;;;;;31.95;15.15;102896.03;5024176;28;20422;-87
2022/03/23 10:30:18;;;;;;;29.10;25.55;;;;;;;32.09;14.59;102883.47;5027792;28;20021;-87
2022/03/23 10:32:43;;;;;;;31.48;25.48;;;;;;;32.33;14.64;102882.63;5025534;28;20513;-87
2022/03/23 10:35:14;;;;;;;30.23;26.40;;;;;;;32.46;14.72;102875.59;5025909;28;20021;-87
2022/03/23 10:37:40;;;;;;;32.95;25.58;;;;;;;32.46;13.71;102871.97;5023907;28;20034;-85
2022/03/23 10:40:09;;;;;;;42.28;26.33;;;;;;;32.76;14.10;102872.25;5028098;28;20144;-86
2022/03/23 10:42:48;;;;;;;27.00;23.40;;;;;;;32.48;14.02;102876.28;5007446;28;20026;-84
2022/03/23 10:45:19;;;;;;;31.23;24.80;;;;;;;32.08;13.94;102879.88;5022350;28;20037;-86
2022/03/23 10:47:46;;;;;;;29.92;24.90;;;;;;;32.30;13.44;102872.81;5024614;28;20025;-85
2022/03/23 10:50:20;;;;;;;33.28;25.23;;;;;;;32.76;14.20;102869.50;5024269;28;20105;-86
2022/03/23 10:52:57;;;;;;;29.35;24.17;;;;;;;33.29;15.10;102870.72;5025530;28;20033;-86
2022/03/23 10:55:24;;;;;;;26.88;23.52;;;;;;;33.64;13.89;102867.44;5027551;28;20081;-86
2022/03/23 10:58:04;;;;;;;30.48;24.73;;;;;;;34.16;14.27;102860.38;5024571;28;20109;-86
2022/03/23 11:00:42;;;;;;;31.33;24.85;;;;;;;34.24;13.01;102859.44;5022083;28;20097;-86
2022/03/23 11:03:09;;;;;;;31.15;25.25;;;;;;;34.34;12.72;102857.28;5027700;28;20490;-85
2022/03/23 11:05:39;;;;;;;29.48;24.88;;;;;;;34.32;12.59;102862.13;5024513;28;20068;-85
2022/03/23 11:08:14;;;;;;;29.85;24.40;;;;;;;34.32;11.80;102862.13;5026195;28;20037;-85
2022/03/23 11:16:29;;;;;;;28.63;24.05;;;;;;;34.94;12.83;102859.91;5028263;28;20068;-85
2022/03/23 11:19:05;;;;;;;29.63;23.20;;;;;;;35.10;11.46;102860.81;5029184;28;20433;-85
2022/03/23 11:21:30;;;;;;;25.67;21.25;;;;;;;35.51;11.22;102849.22;5028998;28;20105;-85
2022/03/23 11:23:56;;;;;;;26.65;22.48;;;;;;;35.60;11.28;102851.66;5029151;28;20275;-86
2022/03/23 11:26:21;;;;;;;25.95;23.17;;;;;;;35.99;10.17;102860.59;5029891;28;20021;-85
2022/03/23 11:28:47;;;;;;;27.35;23.77;;;;;;;36.13;9.74;102849.47;5028551;28;20030;-85
2022/03/23 11:31:17;;;;;;;27.90;23.27;;;;;;;36.38;10.08;102854.56;5029458;28;20080;-85
2022/03/23 11:33:49;;;;;;;27.85;22.58;;;;;;;36.46;10.86;102851.69;5029781;28;20302;-85